Time;durP1;ratioP1;P1;durP2;ratioP2;P2;SDS_P1;SDS_P2;PMS_P1;PMS_P2;Temp;Humidity;BMP_temperature;BMP_pressure;BME280_temperature;BME280_humidity;BME280_pressure;Samples;Min_cycle;Max_cycle;Signal;HPM_P1;HPM_P2
2022/05/22 00:00:46;;;;;;;3.30;2.50;;;17.30;95.30;;;18.05;nan;100819.25;5050909;28;20631;-68
2022/05/22 00:03:13;;;;;;;2.70;2.50;;;17.40;95.10;;;18.07;nan;100830.50;5043691;28;21419;-67
2022/05/22 00:05:40;;;;;;;2.43;2.23;;;17.40;95.00;;;18.04;nan;100822.88;5029359;28;20651;-67
2022/05/22 00:08:07;;;;;;;2.40;2.20;;;17.40;95.20;;;18.02;nan;100822.19;5048046;28;20666;-68
2022/05/22 00:10:34;;;;;;;2.20;2.10;;;17.40;95.40;;;17.98;nan;100814.72;5031496;28;20635;-67
2022/05/22 00:13:01;;;;;;;2.63;2.20;;;17.30;95.70;;;17.98;nan;100818.19;5049725;28;21007;-68
2022/05/22 00:15:28;;;;;;;2.57;2.40;;;17.30;95.70;;;17.97;nan;100813.09;5049390;28;20628;-65
2022/05/22 00:17:55;;;;;;;2.20;2.10;;;17.30;95.80;;;17.94;nan;100810.72;5044719;28;20659;-68
2022/05/22 00:20:23;;;;;;;2.23;2.13;;;17.30;95.90;;;17.93;nan;100809.91;5044950;28;20616;-67
2022/05/22 00:22:50;;;;;;;2.40;2.20;;;17.30;95.90;;;17.88;nan;100806.91;5034988;28;20635;-67
2022/05/22 00:25:17;;;;;;;2.37;2.00;;;17.20;96.30;;;17.87;nan;100812.34;5050050;28;20619;-67
2022/05/22 00:27:44;;;;;;;2.67;2.10;;;17.20;96.20;;;17.83;nan;100807.38;5053363;28;20667;-68
2022/05/22 00:30:13;;;;;;;3.53;2.67;;;17.20;96.30;;;17.79;nan;100805.19;5050984;28;20635;-67
2022/05/22 00:32:42;;;;;;;2.70;2.50;;;17.10;96.60;;;17.76;nan;100805.47;5034155;28;21017;-67
2022/05/22 00:35:09;;;;;;;2.30;2.20;;;17.10;96.50;;;17.77;nan;100809.78;5051231;28;20655;-68
2022/05/22 00:37:36;;;;;;;4.00;2.20;;;17.10;96.70;;;17.75;nan;100802.03;5033754;28;20667;-67
2022/05/22 00:40:05;;;;;;;2.60;2.17;;;17.10;96.60;;;17.70;nan;100804.28;5034862;28;20627;-68
2022/05/22 00:42:32;;;;;;;2.67;2.47;;;17.10;96.80;;;17.62;nan;100808.66;5053638;28;20981;-67
2022/05/22 00:44:59;;;;;;;1.97;1.87;;;17.00;97.00;;;17.54;nan;100803.31;5053165;28;20618;-66
2022/05/22 00:47:26;;;;;;;2.20;2.10;;;16.90;97.20;;;17.53;nan;100799.00;5053037;28;20659;-67
2022/05/22 00:50:00;;;;;;;2.90;2.20;;;16.90;97.30;;;17.47;nan;100796.94;5053312;28;20628;-68
2022/05/22 00:52:34;;;;;;;2.10;2.00;;;16.80;97.60;;;17.43;nan;100799.06;5052957;28;20635;-67
2022/05/22 00:55:14;;;;;;;2.37;2.17;;;16.80;97.80;;;17.40;nan;100807.25;5051399;28;21018;-67
2022/05/22 00:57:52;;;;;;;3.57;2.80;;;16.70;98.10;;;17.44;nan;100810.44;5034280;28;20694;-67
2022/05/22 01:00:29;;;;;;;7.07;2.80;;;16.80;98.20;;;17.45;nan;100810.28;5033811;28;20610;-68
2022/05/22 01:05:44;;;;;;;2.50;2.30;;;16.80;98.10;;;17.39;nan;100817.97;5036542;28;20860;-69
2022/05/22 01:08:12;;;;;;;2.57;2.37;;;16.80;98.30;;;17.29;nan;100809.28;5051500;28;20642;-67
2022/05/22 01:10:46;;;;;;;1.90;1.80;;;16.70;98.50;;;17.24;nan;100822.91;5051362;28;20628;-67
2022/05/22 01:13:22;;;;;;;2.73;2.53;;;16.60;98.90;;;17.13;nan;100814.38;5034022;28;21164;-68
2022/05/22 01:15:49;;;;;;;2.67;2.30;;;16.50;99.40;;;17.00;nan;100812.91;5033002;28;20635;-67
2022/05/22 01:18:16;;;;;;;2.30;2.20;;;16.40;99.90;;;16.96;nan;100808.91;5052317;28;20865;-67
2022/05/22 01:20:51;;;;;;;2.00;1.90;;;16.30;99.90;;;16.94;nan;100813.50;5033503;28;20695;-67
2022/05/22 01:23:20;;;;;;;2.80;2.60;;;16.30;99.90;;;16.91;nan;100824.34;5032118;28;20630;-69
2022/05/22 01:25:47;;;;;;;2.20;2.10;;;16.30;99.90;;;16.98;nan;100820.16;5050754;28;20701;-67
2022/05/22 01:28:19;;;;;;;3.60;2.50;;;16.30;99.90;;;16.99;nan;100813.88;5005395;28;1075070;-68
2022/05/22 01:30:46;;;;;;;2.63;2.50;;;16.30;99.90;;;16.95;nan;100801.97;5048609;28;20197;-67
2022/05/22 01:33:13;;;;;;;4.67;3.00;;;16.30;99.90;;;16.94;nan;100796.84;5053312;28;20624;-68
2022/05/22 01:35:40;;;;;;;2.70;2.50;;;16.30;99.90;;;16.96;nan;100795.75;5052697;28;20627;-67
2022/05/22 01:38:08;;;;;;;2.83;2.63;;;16.30;99.90;;;16.98;nan;100799.06;5052738;28;21112;-67
2022/05/22 01:40:35;;;;;;;2.13;2.03;;;16.40;99.90;;;16.94;nan;100791.59;5044514;28;21230;-69
2022/05/22 01:43:02;;;;;;;2.47;2.27;;;16.30;99.90;;;16.90;nan;100793.69;5051341;28;20631;-67
2022/05/22 01:45:29;;;;;;;4.77;2.60;;;16.30;99.90;;;16.90;nan;100796.34;5052872;28;20631;-67
2022/05/22 01:47:57;;;;;;;3.43;2.83;;;16.30;99.90;;;16.91;nan;100789.22;5053381;28;20655;-67
2022/05/22 01:50:24;;;;;;;2.30;2.20;;;16.30;99.90;;;16.91;nan;100787.44;5053314;28;20632;-69
2022/05/22 01:52:51;;;;;;;3.97;2.40;;;16.30;99.90;;;16.90;nan;100780.53;5035524;28;21378;-67
2022/05/22 01:55:18;;;;;;;7.50;2.33;;;16.30;99.90;;;16.86;nan;100784.44;5050898;28;20635;-67
2022/05/22 01:57:46;;;;;;;2.37;2.23;;;16.20;99.90;;;16.77;nan;100795.84;5051812;28;20678;-67
2022/05/22 02:00:18;;;;;;;2.53;2.40;;;16.10;99.90;;;16.73;nan;100794.47;5051559;28;20663;-68
2022/05/22 02:02:46;;;;;;;4.27;2.70;;;16.10;99.90;;;16.66;nan;100785.50;5050468;28;21014;-67
2022/05/22 02:05:14;;;;;;;3.13;2.80;;;16.10;99.90;;;16.64;nan;100784.81;5051977;28;20615;-67
2022/05/22 02:10:27;;;;;;;3.53;2.57;;;16.00;99.90;;;16.64;nan;100794.50;5051209;28;20693;-73
2022/05/22 02:12:54;;;;;;;3.33;3.00;;;16.00;99.90;;;16.62;nan;100786.75;5052779;28;20623;-65
2022/05/22 02:15:22;;;;;;;3.30;2.83;;;16.00;99.90;;;16.60;nan;100782.59;5033815;28;20699;-66
2022/05/22 02:17:49;;;;;;;2.70;2.50;;;16.00;99.90;;;16.55;nan;100777.75;5051268;28;21223;-67
2022/05/22 02:20:16;;;;;;;2.53;2.33;;;16.00;99.90;;;16.59;nan;100783.59;5051645;28;20659;-67
2022/05/22 02:22:54;;;;;;;3.23;3.00;;;16.00;99.90;;;16.54;nan;100775.28;5052809;28;20619;-67
2022/05/22 02:25:32;;;;;;;2.40;2.30;;;15.90;99.90;;;16.57;nan;100773.19;5033169;28;20638;-68
2022/05/22 02:27:59;;;;;;;2.40;2.30;;;16.00;99.90;;;16.60;nan;100766.78;5067646;23;20687;-67
2022/05/22 02:30:32;;;;;;;2.60;2.40;;;16.00;99.90;;;16.58;nan;100758.22;5033486;28;20627;-69
2022/05/22 02:32:59;;;;;;;2.93;2.60;;;16.00;99.90;;;16.56;nan;100745.19;5033415;28;20628;-67
2022/05/22 02:35:26;;;;;;;2.83;2.63;;;16.00;99.90;;;16.54;nan;100741.03;5033360;28;20985;-67
2022/05/22 02:37:55;;;;;;;4.30;2.80;;;16.00;99.90;;;16.56;nan;100742.56;5061986;28;21053;-66
2022/05/22 02:40:27;;;;;;;2.50;2.40;;;16.00;99.90;;;16.58;nan;100739.78;5054709;28;20618;-67
2022/05/22 02:42:55;;;;;;;2.90;2.50;;;16.00;99.90;;;16.66;nan;100745.97;5053893;28;20629;-71
2022/05/22 02:45:26;;;;;;;2.90;2.70;;;16.10;99.90;;;16.63;nan;100738.34;5062594;28;20632;-66
2022/05/22 02:47:53;;;;;;;2.97;2.73;;;16.00;99.90;;;16.65;nan;100733.75;5051294;28;20662;-67
2022/05/22 02:50:24;;;;;;;3.73;2.83;;;16.00;99.90;;;16.67;nan;100737.09;5070553;28;20635;-71
2022/05/22 02:52:51;;;;;;;5.67;3.00;;;16.10;99.90;;;16.71;nan;100745.53;5062822;28;20628;-69
2022/05/22 02:55:19;;;;;;;5.60;2.87;;;16.10;99.90;;;16.74;nan;100743.41;5051111;28;20631;-66
2022/05/22 02:57:47;;;;;;;2.70;2.50;;;16.20;99.90;;;16.79;nan;100745.63;5050949;28;21220;-66
2022/05/22 03:00:18;;;;;;;2.53;2.33;;;16.20;99.90;;;16.82;nan;100746.16;5034468;28;20627;-67
2022/05/22 03:02:45;;;;;;;4.23;3.03;;;16.20;99.90;;;16.86;nan;100750.16;5051264;28;20630;-70
2022/05/22 03:05:13;;;;;;;2.53;2.33;;;16.30;99.90;;;16.86;nan;100752.81;5050184;28;20620;-68
2022/05/22 03:07:46;;;;;;;2.60;2.50;;;16.30;99.90;;;16.80;nan;100744.66;5033460;28;20656;-68
2022/05/22 03:10:17;;;;;;;2.57;2.47;;;16.20;99.90;;;16.73;nan;100741.78;5052104;28;20616;-68
2022/05/22 03:12:44;;;;;;;5.03;2.67;;;16.10;99.90;;;16.69;nan;100744.84;5050816;28;20638;-66
2022/05/22 03:15:14;;;;;;;3.33;2.20;;;16.10;99.90;;;16.62;nan;100735.88;5032698;28;20632;-69
2022/05/22 03:17:41;;;;;;;2.73;2.47;;;16.00;99.90;;;16.54;nan;100733.97;5031017;28;21051;-67
2022/05/22 03:20:09;;;;;;;2.50;2.40;;;15.90;99.90;;;16.44;nan;100733.13;5049920;28;21192;-67
2022/05/22 03:22:36;;;;;;;2.20;2.10;;;15.90;99.90;;;16.42;nan;100727.19;5061551;28;20646;-67
2022/05/22 03:25:06;;;;;;;2.97;2.60;;;15.80;99.90;;;16.33;nan;100725.44;5035846;28;20630;-69
2022/05/22 03:27:34;;;;;;;5.20;2.70;;;15.70;99.90;;;16.29;nan;100721.44;5044182;28;21543;-67
2022/05/22 03:30:01;;;;;;;2.83;2.63;;;15.70;99.90;;;16.35;nan;100720.03;5070773;28;20631;-67
2022/05/22 03:32:28;;;;;;;3.20;2.90;;;15.80;99.90;;;16.37;nan;100718.91;5070154;28;20642;-67
2022/05/22 03:34:56;;;;;;;7.20;2.77;;;15.80;99.90;;;16.44;nan;100714.69;5052967;28;20640;-70
2022/05/22 03:37:24;;;;;;;2.90;2.30;;;15.90;99.90;;;16.44;nan;100727.88;5032383;28;20675;-67
2022/05/22 03:39:52;;;;;;;7.07;2.63;;;15.90;99.90;;;16.33;nan;100720.97;5049326;28;20624;-67
2022/05/22 03:42:20;;;;;;;3.80;2.87;;;15.70;99.90;;;16.34;nan;100716.56;5031715;28;20628;-67
2022/05/22 03:44:47;;;;;;;5.13;2.83;;;15.70;99.90;;;16.32;nan;100713.22;5031630;28;20612;-67
2022/05/22 03:47:13;;;;;;;3.77;2.77;;;15.70;99.90;;;16.30;nan;100715.19;5053368;28;21279;-67
2022/05/22 03:49:45;;;;;;;2.33;2.23;;;15.70;99.90;;;16.28;nan;100719.78;5039153;28;20639;-69
2022/05/22 03:52:12;;;;;;;3.00;2.80;;;15.70;99.90;;;16.26;nan;100716.44;5049495;28;20620;-70
2022/05/22 03:54:39;;;;;;;2.97;2.77;;;15.70;99.90;;;16.28;nan;100722.41;5059631;28;20630;-67
2022/05/22 03:57:09;;;;;;;3.40;2.70;;;15.70;99.90;;;16.39;nan;100724.03;5069712;28;20667;-69
2022/05/22 03:59:41;;;;;;;3.00;2.70;;;15.80;99.90;;;16.48;nan;100726.63;5067977;28;20658;-70
2022/05/22 04:02:08;;;;;;;2.80;2.60;;;15.90;99.90;;;16.62;nan;100726.16;5050290;28;20635;-67
2022/05/22 04:04:35;;;;;;;6.43;2.53;;;16.10;99.90;;;16.73;nan;100720.69;5053010;28;20639;-67
2022/05/22 04:07:03;;;;;;;2.50;2.30;;;16.20;99.90;;;16.90;nan;100717.28;5049979;28;20644;-68
2022/05/22 04:09:30;;;;;;;3.60;2.70;;;16.40;99.90;;;17.06;nan;100708.69;5031366;28;20640;-66
2022/05/22 04:11:57;;;;;;;2.83;2.57;;;16.50;99.90;;;17.20;nan;100708.19;5050824;28;20635;-67
2022/05/22 04:14:25;;;;;;;2.63;2.43;;;16.70;99.90;;;17.32;nan;100716.66;5048579;28;20995;-69
2022/05/22 04:16:52;;;;;;;3.83;2.77;;;16.90;99.40;;;17.53;nan;100704.84;5049244;28;21078;-66
2022/05/22 04:19:19;;;;;;;3.53;3.23;;;17.10;99.20;;;17.72;nan;100698.56;5049087;28;20645;-67
2022/05/22 04:21:46;;;;;;;2.80;2.63;;;17.20;98.60;;;17.97;nan;100708.31;5050091;28;20631;-67
2022/05/22 04:27:04;;;;;;;2.60;2.33;;;17.70;97.50;;;18.44;nan;100706.13;5049006;28;20971;-67
2022/05/22 04:29:34;;;;;;;4.67;3.40;;;18.00;97.20;;;18.67;nan;100704.56;5055810;28;20670;-68
2022/05/22 04:32:01;;;;;;;3.10;2.67;;;18.20;96.60;;;18.84;nan;100708.91;5070080;28;20637;-67
2022/05/22 04:34:29;;;;;;;2.80;2.60;;;18.40;96.00;;;19.02;nan;100716.69;5047943;28;20635;-65
2022/05/22 04:36:56;;;;;;;3.40;2.47;;;18.60;95.80;;;19.18;nan;100708.78;5025840;28;20686;-67
2022/05/22 04:39:23;;;;;;;2.83;2.70;;;18.80;95.10;;;19.33;nan;100705.34;5052294;28;20639;-67
2022/05/22 04:41:50;;;;;;;4.30;3.27;;;18.90;95.00;;;19.25;nan;100701.88;5050620;28;20613;-68
2022/05/22 04:44:17;;;;;;;4.10;2.83;;;18.90;94.50;;;19.44;nan;100703.38;5056669;28;20643;-68
2022/05/22 04:46:45;;;;;;;8.30;2.97;;;19.00;94.40;;;19.64;nan;100684.34;5048270;28;20631;-68
2022/05/22 04:49:12;;;;;;;2.90;2.67;;;19.30;94.10;;;19.87;nan;100685.28;5048442;28;20689;-66
2022/05/22 04:51:39;;;;;;;2.80;2.70;;;19.50;93.70;;;20.13;nan;100688.56;5046390;28;20651;-69
2022/05/22 04:54:06;;;;;;;5.10;3.40;;;19.80;93.30;;;20.34;nan;100692.47;5033667;28;20638;-67
2022/05/22 04:56:33;;;;;;;3.30;3.10;;;20.00;92.60;;;20.57;nan;100693.41;5068745;28;20615;-68
2022/05/22 04:59:00;;;;;;;3.60;3.30;;;20.20;92.30;;;20.65;nan;100688.03;5047098;28;20656;-67
2022/05/22 05:01:28;;;;;;;3.47;3.03;;;20.30;91.80;;;20.72;nan;100683.72;5043438;28;20651;-67
2022/05/22 05:03:55;;;;;;;3.17;2.97;;;20.30;91.80;;;20.91;nan;100677.13;5041919;28;20651;-67
2022/05/22 05:06:22;;;;;;;5.50;3.07;;;20.50;91.60;;;21.01;nan;100670.59;5047972;28;20692;-71
2022/05/22 05:08:49;;;;;;;3.80;3.50;;;20.60;91.10;;;21.19;nan;100670.34;5047732;28;20647;-66
2022/05/22 05:11:16;;;;;;;3.30;3.00;;;20.80;90.90;;;21.36;nan;100667.34;5034558;28;20620;-71
2022/05/22 05:13:43;;;;;;;4.00;3.60;;;21.00;91.00;;;21.44;nan;100677.91;5053518;28;21172;-66
2022/05/22 05:16:13;;;;;;;6.67;3.60;;;21.10;90.90;;;21.57;nan;100674.66;5054086;28;20655;-70
2022/05/22 05:18:41;;;;;;;4.13;3.77;;;21.20;90.70;;;21.78;nan;100680.09;5037343;28;20674;-70
2022/05/22 05:21:11;;;;;;;3.87;3.50;;;21.40;90.50;;;21.92;nan;100673.97;5034976;28;20620;-68
2022/05/22 05:23:39;;;;;;;4.10;3.10;;;21.50;90.10;;;22.13;nan;100675.91;5063059;28;20638;-68
2022/05/22 05:26:06;;;;;;;4.03;3.50;;;21.80;89.60;;;22.36;nan;100681.94;5055177;28;20622;-68
2022/05/22 05:28:34;;;;;;;3.90;3.50;;;22.00;88.40;;;22.50;nan;100686.44;5050860;28;21248;-67
2022/05/22 05:31:02;;;;;;;10.57;3.83;;;22.10;88.40;;;22.66;nan;100683.56;5032226;28;20628;-68
2022/05/22 05:33:34;;;;;;;3.83;3.40;;;22.30;87.90;;;22.81;nan;100683.53;5021825;28;22281;-68
2022/05/22 05:36:02;;;;;;;4.00;3.60;;;22.50;87.50;;;22.98;nan;100690.28;5053529;28;20623;-67
2022/05/22 05:38:30;;;;;;;5.60;4.07;;;22.60;86.80;;;23.26;nan;100690.34;5052594;28;20664;-70
2022/05/22 05:41:17;;;;;;;4.53;4.13;;;22.90;85.20;;;23.28;nan;100701.63;5053057;28;20604;-67
2022/05/22 05:43:44;;;;;;;3.70;3.50;;;22.90;84.60;;;23.38;nan;100699.50;5052173;28;20631;-65
2022/05/22 05:46:11;;;;;;;6.23;4.20;;;23.00;84.80;;;23.42;nan;100695.44;5051420;28;20638;-72
2022/05/22 05:48:41;;;;;;;5.60;3.80;;;23.10;83.70;;;23.63;nan;100701.59;5033525;28;20693;-67
2022/05/22 05:51:08;;;;;;;5.00;3.47;;;23.20;83.90;;;23.96;nan;100698.34;5037291;28;20631;-67
2022/05/22 05:53:35;;;;;;;4.47;4.03;;;23.50;82.70;;;24.13;nan;100700.50;5069318;28;20787;-68
2022/05/22 05:56:06;;;;;;;4.20;3.87;;;23.80;82.10;;;24.26;nan;100703.25;5072743;28;20610;-67
2022/05/22 05:58:44;;;;;;;4.47;3.80;;;23.80;81.10;;;24.74;nan;100708.59;5027479;28;21255;-68
2022/05/22 06:01:13;;;;;;;3.87;3.57;;;24.30;80.00;;;25.27;nan;100702.38;5045596;28;20641;-70
2022/05/22 06:03:41;;;;;;;4.10;3.70;;;25.00;78.30;;;25.83;nan;100697.50;5044217;28;20647;-66
2022/05/22 06:06:10;;;;;;;4.70;4.30;;;25.60;76.30;;;26.44;nan;100698.81;5050600;28;20628;-68
2022/05/22 06:08:38;;;;;;;4.70;4.13;;;26.20;73.70;;;27.10;nan;100698.50;5033152;28;20652;-69
2022/05/22 06:11:06;;;;;;;6.03;4.63;;;26.90;70.90;;;27.59;nan;100702.09;5050000;28;21157;-69
2022/05/22 06:13:33;;;;;;;5.13;4.03;;;27.30;69.00;;;28.17;nan;100701.75;5051830;28;20626;-67
2022/05/22 06:16:04;;;;;;;4.97;3.83;;;27.90;67.70;;;28.82;nan;100700.97;5051100;28;20646;-71
2022/05/22 06:18:32;;;;;;;4.80;4.40;;;28.50;64.90;;;29.47;nan;100701.06;5056024;28;20675;-70
2022/05/22 06:21:07;;;;;;;7.83;3.67;;;29.20;63.40;;;30.29;nan;100703.53;5033802;28;20612;-65
2022/05/22 06:23:35;;;;;;;7.10;4.00;;;30.00;61.50;;;30.58;nan;100702.53;5061903;28;20630;-69
2022/05/22 06:26:02;;;;;;;4.10;3.70;;;30.50;58.70;;;31.16;nan;100705.00;5036617;28;20659;-68
2022/05/22 06:28:29;;;;;;;4.00;3.47;;;31.00;57.70;;;31.89;nan;100704.88;5056287;28;20666;-65
2022/05/22 06:30:56;;;;;;;8.20;4.50;;;31.70;56.50;;;32.58;nan;100705.31;5058880;28;21011;-63
2022/05/22 06:33:23;;;;;;;4.40;4.00;;;32.30;55.30;;;33.36;nan;100705.56;5017111;28;20642;-65
2022/05/22 06:35:50;;;;;;;6.80;4.53;;;33.10;53.80;;;34.28;nan;100707.84;5021984;28;24991;-67
2022/05/22 06:41:11;;;;;;;4.47;3.70;;;34.70;50.40;;;35.62;nan;100710.34;5033386;28;20636;-66
2022/05/22 06:43:39;;;;;;;5.10;3.87;;;35.30;49.30;;;36.40;nan;100706.88;5030780;28;20635;-67
2022/05/22 06:46:07;;;;;;;5.27;4.50;;;36.10;48.90;;;36.98;nan;100715.31;5036318;28;20648;-69
2022/05/22 06:48:34;;;;;;;4.80;4.40;;;36.60;46.80;;;37.49;nan;100710.31;5030350;28;21204;-65
2022/05/22 06:51:01;;;;;;;4.77;4.37;;;37.20;46.00;;;38.00;nan;100711.47;5033464;28;20675;-66
2022/05/22 06:53:28;;;;;;;5.40;4.90;;;37.60;44.90;;;37.81;nan;100718.75;5031947;28;20632;-65
2022/05/22 06:55:55;;;;;;;4.43;4.03;;;37.50;44.40;;;38.34;nan;100717.63;5048257;28;21121;-67
2022/05/22 06:58:22;;;;;;;5.20;4.70;;;37.90;43.90;;;38.61;nan;100717.81;5031774;28;20674;-65
2022/05/22 07:00:52;;;;;;;4.30;4.00;;;38.40;43.00;;;38.67;nan;100713.13;5049987;28;20632;-64
2022/05/22 07:03:20;;;;;;;4.60;4.13;;;38.20;43.10;;;38.90;nan;100711.44;5051012;28;20650;-67
2022/05/22 07:05:47;;;;;;;3.93;3.63;;;38.60;42.10;;;39.19;nan;100712.91;5049004;28;20651;-63
2022/05/22 07:08:14;;;;;;;5.00;3.60;;;38.70;41.90;;;39.00;nan;100706.66;5033149;28;20651;-65
2022/05/22 07:13:27;;;;;;;4.97;4.57;;;38.70;41.90;;;39.93;nan;100695.50;5047982;28;20635;-67
2022/05/22 07:16:03;;;;;;;5.00;4.60;;;39.40;41.60;;;40.63;nan;100703.41;5032746;28;20627;-65
2022/05/22 07:18:49;;;;;;;4.33;4.03;;;40.20;40.90;;;41.43;nan;100695.19;5051095;28;20664;-66
2022/05/22 07:21:16;;;;;;;4.80;4.43;;;41.00;40.30;;;41.60;nan;100701.59;5050540;28;20979;-65
2022/05/22 07:23:43;;;;;;;5.00;4.60;;;41.40;40.00;;;42.18;nan;100692.34;5050258;28;21212;-67
2022/05/22 07:26:12;;;;;;;5.00;4.50;;;41.90;39.30;;;42.14;nan;100694.94;5030149;28;20616;-65
2022/05/22 07:28:39;;;;;;;4.67;4.27;;;41.90;39.00;;;42.87;nan;100690.56;5052630;28;20663;-65
2022/05/22 07:31:14;;;;;;;5.13;4.40;;;42.50;39.10;;;43.37;nan;100688.88;5048620;28;21016;-65
2022/05/22 07:33:41;;;;;;;5.20;4.70;;;43.10;38.20;;;43.50;nan;100678.81;5056189;28;20627;-64
2022/05/22 07:36:08;;;;;;;4.30;4.10;;;43.20;37.80;;;43.46;nan;100667.69;5055113;28;20685;-66
2022/05/22 07:38:36;;;;;;;5.00;4.50;;;43.20;37.80;;;43.59;nan;100669.44;5056180;28;20690;-66
2022/05/22 07:41:03;;;;;;;3.43;3.23;;;43.30;37.60;;;43.83;nan;100663.38;5059116;28;21020;-66
2022/05/22 07:43:30;;;;;;;4.23;3.80;;;43.50;36.90;;;43.98;nan;100659.25;5059642;28;20644;-69
2022/05/22 07:45:57;;;;;;;5.20;4.80;;;43.90;36.30;;;43.59;nan;100652.13;5055414;28;21196;-68
2022/05/22 07:48:24;;;;;;;5.13;4.70;;;43.50;36.40;;;43.82;nan;100661.75;5054271;28;20719;-68
2022/05/22 07:51:01;;;;;;;5.80;5.10;;;43.50;36.50;;;43.73;nan;100656.28;5057399;28;20992;-68
2022/05/22 07:53:29;;;;;;;5.30;4.90;;;43.50;36.70;;;44.07;nan;100657.25;5055213;28;20615;-69
2022/05/22 07:55:57;;;;;;;4.57;4.27;;;43.90;36.30;;;44.32;nan;100651.59;5050681;28;20648;-67
2022/05/22 07:58:26;;;;;;;4.80;4.50;;;44.00;36.10;;;43.90;nan;100642.47;5040885;28;20680;-67
2022/05/22 08:00:55;;;;;;;4.93;4.50;;;44.00;35.70;;;43.98;nan;100643.53;5038526;28;20636;-67
2022/05/22 08:03:23;;;;;;;5.10;4.70;;;43.80;36.10;;;44.17;nan;100632.94;5052347;28;20730;-67
2022/05/22 08:05:52;;;;;;;4.70;4.30;;;44.00;36.10;;;44.21;nan;100638.59;5056871;28;20643;-66
2022/05/22 08:08:19;;;;;;;5.10;3.93;;;44.00;35.90;;;44.06;nan;100639.16;5057838;28;20987;-67
2022/05/22 08:10:46;;;;;;;4.37;3.90;;;43.90;36.20;;;44.43;nan;100635.53;5055787;28;20640;-65
2022/05/22 08:13:14;;;;;;;5.40;5.03;;;44.20;35.80;;;44.44;nan;100637.97;5058320;28;20647;-65
2022/05/22 08:15:42;;;;;;;5.30;4.80;;;44.20;35.60;;;44.46;nan;100621.91;5057513;28;20662;-65
2022/05/22 08:18:11;;;;;;;4.50;4.20;;;44.30;35.30;;;44.22;nan;100620.94;5053660;28;20670;-66
2022/05/22 08:20:41;;;;;;;4.70;4.03;;;44.00;35.30;;;42.86;nan;100612.06;5047362;28;20644;-66
2022/05/22 08:23:14;;;;;;;4.30;3.90;;;43.20;35.70;;;43.16;nan;100613.78;5058126;28;20619;-69
2022/05/22 08:25:42;;;;;;;5.67;4.60;;;42.90;35.90;;;43.60;nan;100609.75;5066188;28;20620;-70
2022/05/22 08:28:10;;;;;;;4.80;4.40;;;43.20;36.10;;;44.24;nan;100599.38;5060470;23;20680;-66
2022/05/22 08:30:37;;;;;;;4.30;4.03;;;43.90;35.70;;;44.74;nan;100593.81;5027898;28;20636;-65
2022/05/22 08:33:04;;;;;;;3.83;3.63;;;44.50;35.20;;;44.46;nan;100593.59;5028197;28;20636;-65
2022/05/22 08:35:34;;;;;;;3.80;3.60;;;44.10;35.20;;;45.19;nan;100601.00;5029195;28;20966;-67
2022/05/22 08:38:02;;;;;;;4.10;3.80;;;44.90;35.00;;;46.01;nan;100605.28;5029440;28;20656;-66
2022/05/22 08:41:04;;;;;;;4.73;4.33;;;45.80;34.40;;;46.67;nan;100599.38;5031461;28;20699;-66
2022/05/22 08:43:56;;;;;;;5.10;4.70;;;46.50;34.00;;;46.86;nan;100604.25;5027491;28;20636;-66
2022/05/22 08:47:03;;;;;;;5.00;3.80;;;46.80;33.60;;;46.48;nan;100596.44;5030520;28;20633;-68
2022/05/22 08:49:38;;;;;;;4.17;3.87;;;46.50;33.60;;;45.92;nan;100592.75;5030641;28;20667;-66
2022/05/22 08:52:19;;;;;;;4.30;3.90;;;46.10;33.50;;;46.86;nan;100596.72;5043151;28;20622;-66
2022/05/22 08:54:53;;;;;;;4.13;3.93;;;46.60;33.70;;;47.68;nan;100594.94;5041096;28;20628;-66
2022/05/22 09:00:32;;;;;;;4.80;4.50;;;48.10;32.80;;;48.30;nan;100592.00;5032840;28;20655;-65
2022/05/22 09:03:07;;;;;;;5.30;5.00;;;48.20;32.40;;;48.33;nan;100582.19;5051213;28;20631;-66
2022/05/22 09:05:35;;;;;;;3.90;3.73;;;48.30;32.40;;;48.82;nan;100585.16;5042470;28;20715;-65
2022/05/22 09:08:22;;;;;;;4.03;3.77;;;48.60;32.40;;;49.08;nan;100574.16;5044173;28;20711;-66
2022/05/22 09:11:06;;;;;;;4.70;4.40;;;48.90;32.10;;;49.61;nan;100578.63;5040256;28;20631;-65
2022/05/22 09:13:45;;;;;;;4.50;4.23;;;49.40;31.80;;;50.09;nan;100567.81;5038927;28;20626;-66
2022/05/22 09:16:57;;;;;;;3.70;3.50;;;49.90;31.40;;;49.86;nan;100564.34;5034389;28;20636;-66
2022/05/22 09:19:52;;;;;;;4.93;4.50;;;49.70;31.40;;;49.79;nan;100565.03;5031664;28;20672;-66
2022/05/22 09:23:16;;;;;;;4.60;4.40;;;49.90;31.10;;;50.45;nan;100565.13;5031552;28;20623;-66
2022/05/22 09:26:07;;;;;;;3.50;3.30;;;50.30;30.80;;;50.73;nan;100549.97;5029783;28;20639;-66
2022/05/22 09:29:01;;;;;;;3.77;3.50;;;50.60;30.70;;;51.21;nan;100550.81;5032553;28;20668;-66
2022/05/22 09:31:55;;;;;;;4.03;3.73;;;51.20;30.80;;;51.55;nan;100549.50;5032567;28;20662;-66
2022/05/22 09:35:05;;;;;;;3.20;2.90;;;51.50;30.20;;;51.78;nan;100545.25;5031392;28;20619;-66
2022/05/22 09:38:09;;;;;;;2.90;2.60;;;51.90;30.00;;;51.77;nan;100540.09;5043059;28;20666;-68
2022/05/22 09:40:49;;;;;;;3.83;3.47;;;51.70;30.00;;;50.75;nan;100533.72;5055360;28;20643;-66
2022/05/22 09:43:33;;;;;;;3.30;3.10;;;51.10;29.80;;;50.27;nan;100527.22;5028481;28;20632;-67
2022/05/22 09:46:22;;;;;;;3.23;3.03;;;50.30;29.90;;;50.49;nan;100526.28;5033399;28;20641;-66
2022/05/22 09:49:42;;;;;;;3.83;3.63;;;50.30;29.90;;;50.19;nan;100517.22;5030910;28;20743;-66
2022/05/22 09:52:23;;;;;;;4.50;4.10;;;50.10;30.00;;;49.72;nan;100513.03;5033174;28;20615;-65
2022/05/22 09:55:31;;;;;;;3.73;3.53;;;49.60;30.00;;;49.98;nan;100512.19;5030492;28;20639;-66
2022/05/22 09:58:04;;;;;;;3.37;3.27;;;50.10;30.00;;;49.09;nan;100508.47;5030800;28;20643;-65
2022/05/22 10:00:57;;;;;;;5.10;4.43;;;49.30;30.10;;;48.01;nan;100512.31;5031842;28;20632;-67
2022/05/22 10:04:03;;;;;;;3.97;3.80;;;47.90;30.20;;;44.26;nan;100495.34;5031132;28;20637;-66
2022/05/22 10:06:51;;;;;;;4.30;3.90;;;45.00;31.70;;;41.40;nan;100484.97;5038878;28;21176;-66
2022/05/22 10:09:33;;;;;;;4.33;4.00;;;42.40;32.40;;;42.10;nan;100493.84;5048123;28;20659;-66
2022/05/22 10:12:39;;;;;;;4.80;4.50;;;41.80;33.40;;;41.85;nan;100489.09;5039922;28;21020;-66
2022/05/22 10:15:47;;;;;;;3.97;3.77;;;41.70;33.70;;;41.12;nan;100484.38;5036524;28;20643;-62
2022/05/22 10:19:14;;;;;;;5.60;4.10;;;41.20;34.20;;;40.50;nan;100471.78;5028764;28;20660;-65
2022/05/22 10:21:49;;;;;;;5.07;4.57;;;40.00;34.80;;;39.08;nan;100471.31;5041309;28;20645;-66
2022/05/22 10:24:53;;;;;;;7.07;4.67;;;38.50;35.70;;;36.88;nan;100466.03;5046324;28;20648;-65
2022/05/22 10:27:41;;;;;;;4.57;4.27;;;36.20;37.10;;;35.72;nan;100468.72;5031627;28;20664;-66
2022/05/22 10:30:46;;;;;;;4.43;4.03;;;35.00;37.50;;;33.85;nan;100467.22;5030540;28;20696;-68
2022/05/22 10:33:35;;;;;;;4.43;3.63;;;33.20;38.90;;;32.91;nan;100456.47;4984885;28;20644;-66
2022/05/22 10:36:12;;;;;;;4.60;4.20;;;32.00;40.40;;;32.14;nan;100456.09;5029708;28;20633;-66
2022/05/22 10:39:16;;;;;;;3.10;2.90;;;31.10;41.30;;;31.76;nan;100464.28;5033056;28;20739;-67
2022/05/22 10:44:56;;;;;;;4.60;4.20;;;30.50;42.70;;;31.23;nan;100456.88;5038635;28;20637;-66
2022/05/22 10:47:33;;;;;;;4.40;4.00;;;30.40;42.30;;;30.52;nan;100453.09;5027771;28;20663;-65
2022/05/22 10:50:25;;;;;;;4.30;3.90;;;29.70;43.00;;;30.31;nan;100440.34;5052672;28;20629;-66
2022/05/22 10:52:54;;;;;;;5.10;4.60;;;29.40;43.60;;;30.10;nan;100443.72;5011109;28;20632;-65
2022/05/22 10:55:45;;;;;;;4.00;3.60;;;29.20;44.20;;;29.95;nan;100454.22;5013358;28;20689;-65
2022/05/22 10:58:31;;;;;;;6.03;5.10;;;29.10;44.20;;;29.56;nan;100445.09;5006014;28;20665;-68
2022/05/22 11:01:14;;;;;;;5.35;4.30;;;28.80;44.30;;;29.16;nan;100430.81;4996050;28;24474;-66
2022/05/22 11:03:41;;;;;;;6.77;4.87;;;28.40;45.00;;;28.79;nan;100430.22;5030956;28;20209;-65
2022/05/22 11:06:22;;;;;;;5.43;4.50;;;28.00;45.70;;;28.46;nan;100424.56;5041250;28;21054;-65
2022/05/22 11:08:54;;;;;;;4.93;4.27;;;27.80;45.90;;;28.50;nan;100416.84;5050339;28;20655;-67